East Montpelier Center, Vermont
Current Conditions -  °F | °C
As of 8:17 AM on Thursday 30 Oct 2014 (Local Time) from KMPV Reporting Station
Overcast Overcast  
Wind Chill: 43°   Ceiling: 2900
Heat Index: 43°   Visibility: 10mi
Dew Point: 38°   Wind: 0mph
Humidity: 82%   Direction: NA
Pressure: 29.94"   Gusts: NA
Location:  44.2861°N, 72.6004°W
Report Text: KMPV 301217Z AUTO 00000KT 10SM SCT022 BKN029 OVC042 06/03 A2994 RMK AO2 T00610033
Loading
Personal Weather Stations






























Interactive Weather Map
Tropical Storm Tracking
New forecast layout! Learn more

10-Day Weather Forecast

Advertisements
Track Severe Weather on mobile